Stations météo

réclame
Mon MeteoGroup
Zeebrugge, Belgique (6418): Température de l'air & dewpoint: 18.11.2017 15:00:00 - 24.11.2017 15:00:00 (CET)Zeebrugge, Belgique (6418): Vitesse du vent & gusts: 18.11.2017 15:00:00 - 24.11.2017 15:00:00 (CET)Zeebrugge, Belgique (6418): Direction du vent: 18.11.2017 15:00:00 - 24.11.2017 15:00:00 (CET)Zeebrugge, Belgique (6418): reduced air pressure: 18.11.2017 15:00:00 - 24.11.2017 15:00:00 (CET)Zeebrugge, Belgique (6418): Ensoleillement: 18.11.2017 15:00:00 - 24.11.2017 15:00:00 (CET)Zeebrugge, Belgique (6418): Quantités de précipitations: 18.11.2017 15:00:00 - 24.11.2017 15:00:00 (CET)
Date & Time tt [°C] td [°C] ff [km/h] ff [knt] fx [km/h] fx [knt] dd ppp [hPa] sd [min] rr [mm]
24.11.2017 15:00:00 - - - - - - - - - -
24.11.2017 14:00:00 10,5 6,5 12 7 16 9 NW 1011,5 27 0,0
24.11.2017 13:00:00 11,6 8,9 4 2 10 5 SW 1011,5 52 0,0
24.11.2017 12:00:00 8,9 6,9 4 2 19 11 W 1011,1 1 0,0
24.11.2017 11:00:00 9,2 7,5 10 5 21 12 WNW 1010,7 31 0,0
24.11.2017 10:00:00 7,7 6,0 16 9 23 12 SSW 1010,0 0 0,0
24.11.2017 09:00:00 8,0 5,8 13 7 20 11 SSW 1009,0 0 0,0
24.11.2017 08:00:00 8,2 6,3 10 5 17 9 WSW 1008,3 0 0,0
24.11.2017 07:00:00 7,9 6,1 11 6 24 13 W 1007,7 0 0,1
24.11.2017 06:00:00 7,9 6,2 9 5 14 8 W 1007,2 0 0,0
24.11.2017 05:00:00 7,7 6,0 8 5 18 10 WNW 1006,9 0 0,8
24.11.2017 04:00:00 7,7 6,0 8 5 16 8 W 1007,1 0 1,2
24.11.2017 03:00:00 7,7 5,8 11 6 19 10 W 1007,8 0 2,1
24.11.2017 02:00:00 8,7 6,5 15 8 27 15 SSW 1007,5 0 0,1
24.11.2017 01:00:00 8,9 6,5 18 10 29 16 SSW 1007,4 0 0,0
24.11.2017 00:00:00 9,0 6,5 16 9 29 16 S 1008,1 0 0,0
23.11.2017 23:00:00 8,6 5,6 24 13 32 17 SSW 1008,1 0 0,5
23.11.2017 22:00:00 8,9 5,2 21 12 31 17 SSW 1008,1 0 0,0
23.11.2017 21:00:00 9,3 5,5 22 12 36 20 SSW 1007,7 0 0,0
23.11.2017 20:00:00 9,3 5,4 23 12 34 18 SSW 1007,2 0 0,0
23.11.2017 19:00:00 9,5 5,2 22 12 34 18 SSW 1006,5 0 0,0
23.11.2017 18:00:00 10,0 5,2 23 13 37 20 SSW 1005,8 0 0,0
23.11.2017 17:00:00 10,5 4,7 22 12 46 25 SSW 1005,2 37 0,0
23.11.2017 16:00:00 11,2 5,2 33 18 61 33 SW 1004,3 60 0,0
23.11.2017 15:00:00 11,5 6,9 32 18 56 30 WSW 1003,6 55 0,0
23.11.2017 14:00:00 11,5 9,3 26 14 40 22 WSW 1002,5 11 0,0
23.11.2017 13:00:00 10,1 8,0 29 16 73 39 W 1001,2 0 0,4
23.11.2017 12:00:00 13,5 11,3 41 22 66 36 SSW 998,4 2 0,0
23.11.2017 11:00:00 13,4 11,5 40 22 57 31 S 997,6 1 0,1
23.11.2017 10:00:00 12,5 10,2 38 20 65 35 SSW 996,8 0 0,0
23.11.2017 09:00:00 11,9 7,6 47 26 77 42 S 994,7 0 0,1
23.11.2017 08:00:00 12,9 7,0 52 28 74 40 S 992,7 0 0,1
23.11.2017 07:00:00 13,1 6,5 54 29 83 45 S 992,5 0 0,2
23.11.2017 06:00:00 13,2 6,0 50 27 81 44 S 992,1 0 0,1
23.11.2017 05:00:00 13,3 5,6 53 29 69 37 S 992,6 0 0,1
23.11.2017 04:00:00 13,4 5,4 48 26 69 37 S 994,0 0 0,0
23.11.2017 03:00:00 13,1 5,2 50 27 73 39 S 994,7 0 0,1
23.11.2017 02:00:00 13,0 5,7 48 26 63 34 S 995,1 0 0,0
23.11.2017 01:00:00 12,4 5,5 43 23 64 35 S 995,7 0 0,0
23.11.2017 00:00:00 12,7 5,3 50 27 72 39 S 996,1 0 0,0
22.11.2017 23:00:00 12,2 5,4 46 25 63 34 S 996,7 0 0,0
22.11.2017 22:00:00 12,2 5,0 42 23 64 35 S 997,7 0 0,0
22.11.2017 21:00:00 12,1 5,2 42 23 64 35 S 998,4 0 0,0
22.11.2017 20:00:00 12,0 5,6 44 24 59 32 S 998,8 0 0,0
22.11.2017 19:00:00 12,2 5,9 43 23 58 31 S 1000,1 0 0,0
22.11.2017 18:00:00 12,2 5,9 46 25 61 33 S 1000,3 0 0,0
22.11.2017 17:00:00 12,7 6,4 32 17 56 30 S 1001,2 38 0,0
22.11.2017 16:00:00 13,0 6,7 45 24 57 31 S 1001,5 60 0,0
22.11.2017 15:00:00 13,1 7,6 35 19 48 26 S 1002,5 60 0,0
22.11.2017 14:00:00 12,7 7,7 37 20 57 31 S 1003,3 60 0,0
22.11.2017 13:00:00 12,6 8,0 40 21 50 27 S 1003,7 60 0,0
22.11.2017 12:00:00 12,3 8,6 35 19 51 28 S 1004,7 60 0,0
22.11.2017 11:00:00 11,3 8,7 40 22 54 29 S 1005,1 46 0,0
22.11.2017 10:00:00 10,7 8,3 37 20 50 27 S 1005,5 5 0,0
22.11.2017 09:00:00 11,0 8,4 32 17 45 25 S 1005,5 0 0,0
22.11.2017 08:00:00 11,1 8,4 33 18 49 26 S 1005,5 0 0,0
22.11.2017 07:00:00 11,4 8,6 32 18 44 24 S 1005,6 0 0,0
22.11.2017 06:00:00 11,2 8,5 30 16 44 24 S 1005,9 0 0,0
22.11.2017 05:00:00 11,3 8,4 31 17 49 27 S 1005,7 0 0,0
22.11.2017 04:00:00 11,5 8,5 32 17 46 25 S 1005,9 0 0,0
22.11.2017 03:00:00 11,6 8,6 31 17 42 23 S 1006,7 0 0,0
22.11.2017 02:00:00 11,5 8,5 31 17 50 27 S 1007,1 0 0,0
22.11.2017 01:00:00 11,5 8,7 36 19 52 28 SSW 1007,5 0 0,0
22.11.2017 00:00:00 11,4 8,7 30 16 47 26 S 1007,8 0 0,0
21.11.2017 23:00:00 11,3 8,7 32 18 49 26 S 1008,2 0 0,0
21.11.2017 22:00:00 11,5 9,1 31 17 48 26 SSW 1008,7 0 0,0
21.11.2017 21:00:00 11,5 9,1 34 19 48 26 SSW 1009,0 0 0,0
21.11.2017 20:00:00 11,5 9,2 33 18 59 32 S 1009,2 0 0,0
21.11.2017 19:00:00 11,5 9,1 29 16 45 24 SSW 1009,5 0 0,0
21.11.2017 18:00:00 11,7 9,4 29 16 43 23 SSW 1010,2 0 0,0
21.11.2017 17:00:00 11,8 9,7 32 18 43 23 SSW 1010,4 0 0,0
21.11.2017 16:00:00 11,9 9,9 31 17 40 22 SSW 1010,7 0 0,0
21.11.2017 15:00:00 - - - - - - - - 3 -
21.11.2017 14:00:00 12,3 10,4 30 16 44 24 SSW 1011,7 0 0,0
21.11.2017 13:00:00 12,9 11,2 29 16 57 31 SSW 1012,1 0 0,0
21.11.2017 12:00:00 12,9 11,8 31 17 52 28 SW 1012,5 0 0,0
21.11.2017 11:00:00 12,5 11,6 32 18 52 28 SW 1012,7 0 0,1
21.11.2017 10:00:00 11,9 11,2 32 17 47 25 SW 1012,5 0 0,0
21.11.2017 09:00:00 11,4 10,8 29 15 44 24 SW 1012,3 0 0,1
21.11.2017 08:00:00 11,4 10,8 29 16 45 24 SW 1012,0 0 0,1
21.11.2017 07:00:00 11,4 10,7 32 18 46 25 WSW 1012,1 0 0,1
21.11.2017 06:00:00 11,4 10,7 28 15 42 23 SW 1012,3 0 0,3
21.11.2017 05:00:00 11,3 10,6 24 13 39 21 SW 1012,4 0 0,2
21.11.2017 04:00:00 11,2 10,4 22 12 - - SW 1012,6 0 0,0
21.11.2017 03:00:00 11,0 10,3 21 11 38 21 SW 1012,9 0 0,0
21.11.2017 02:00:00 11,1 10,3 24 13 35 19 WSW 1013,0 0 0,0
21.11.2017 01:00:00 11,3 10,4 25 14 37 20 WSW 1013,1 0 0,0
21.11.2017 00:00:00 11,2 10,3 25 14 37 20 SW 1012,7 0 0,0
20.11.2017 23:00:00 11,3 10,4 25 14 41 22 WSW 1012,7 0 0,0
20.11.2017 22:00:00 11,3 10,4 26 14 40 22 WSW 1012,9 0 0,0
20.11.2017 21:00:00 11,3 10,3 25 13 39 21 WSW 1012,7 0 0,0
20.11.2017 20:00:00 11,4 10,4 28 15 46 25 WSW 1012,8 0 0,0
20.11.2017 19:00:00 11,5 10,5 30 16 55 30 WSW 1012,6 0 0,0
20.11.2017 18:00:00 11,3 10,2 37 20 62 34 WSW 1012,5 0 0,2
20.11.2017 17:00:00 11,5 10,3 33 18 51 28 WSW 1012,6 0 0,0
20.11.2017 16:00:00 11,5 10,4 37 20 54 29 WSW 1013,0 0 0,1
20.11.2017 15:00:00 10,8 9,9 30 16 48 26 SW 1013,3 0 0,0
20.11.2017 14:00:00 9,6 8,7 28 15 40 22 SSW 1014,1 0 0,0
20.11.2017 13:00:00 8,7 7,7 29 16 43 23 SSW 1015,1 0 0,0
20.11.2017 12:00:00 7,9 6,7 32 17 46 25 SSW 1016,1 0 0,0
20.11.2017 11:00:00 7,0 5,7 28 15 41 22 S 1016,6 0 0,0
20.11.2017 10:00:00 6,6 4,7 29 16 38 20 S 1017,1 0 0,1
20.11.2017 09:00:00 6,1 3,7 22 12 31 17 S 1018,2 0 0,0
20.11.2017 08:00:00 5,8 3,3 21 12 26 14 S 1019,3 0 0,0
20.11.2017 07:00:00 5,5 3,1 18 10 26 14 S 1020,2 0 0,0
20.11.2017 06:00:00 5,4 3,0 21 11 28 15 S 1020,3 0 0,0
20.11.2017 05:00:00 5,4 2,9 21 12 26 14 S 1020,6 0 0,0
20.11.2017 04:00:00 5,2 2,7 19 11 26 14 SSW 1021,2 0 0,0
20.11.2017 03:00:00 5,2 2,5 18 10 24 13 SSW 1022,1 0 0,0
20.11.2017 02:00:00 5,1 2,0 17 9 22 12 SSW 1022,3 0 0,0
20.11.2017 01:00:00 4,9 0,6 14 8 19 11 SSW 1023,1 0 0,0
20.11.2017 00:00:00 6,9 0,7 11 6 27 15 SW 1023,5 0 0,0
19.11.2017 23:00:00 7,7 1,3 18 10 28 15 W 1023,6 0 0,0
19.11.2017 22:00:00 7,9 1,5 17 9 23 12 W 1023,7 0 0,0
19.11.2017 21:00:00 7,9 1,6 14 7 23 12 W 1023,3 0 0,0
19.11.2017 20:00:00 7,9 1,7 14 8 23 12 W 1023,1 0 0,0
19.11.2017 19:00:00 7,9 1,9 14 8 25 14 WNW 1023,2 0 0,0
19.11.2017 18:00:00 8,0 2,1 13 7 29 16 W 1022,8 0 0,0
19.11.2017 17:00:00 8,3 2,2 16 9 31 17 WNW 1022,5 2 0,0
19.11.2017 16:00:00 9,0 2,4 16 9 33 18 WNW 1022,2 29 0,0
19.11.2017 15:00:00 9,5 3,1 24 13 36 19 WNW 1022,0 46 0,0
19.11.2017 14:00:00 9,7 3,4 26 14 33 18 WNW 1022,1 45 0,0
19.11.2017 13:00:00 9,9 4,4 25 14 34 18 NW 1022,0 36 0,0
19.11.2017 12:00:00 9,5 4,5 27 15 36 20 NW 1021,8 32 0,0
19.11.2017 11:00:00 8,5 3,6 25 13 41 22 WNW 1021,4 12 0,0
19.11.2017 10:00:00 8,2 3,0 27 15 39 21 WNW 1021,0 8 0,0
19.11.2017 09:00:00 8,0 2,4 26 14 38 20 WNW 1020,4 3 0,0
19.11.2017 08:00:00 7,7 1,5 25 14 41 22 NW 1019,8 0 0,0
19.11.2017 07:00:00 7,7 1,1 32 18 45 25 NW 1019,3 0 0,0
19.11.2017 06:00:00 7,8 0,3 33 18 48 26 WNW 1019,0 0 0,0
19.11.2017 05:00:00 8,0 0,9 32 17 44 24 WNW 1018,9 0 0,0
19.11.2017 04:00:00 7,9 1,0 29 15 51 27 NW 1018,7 0 0,0
19.11.2017 03:00:00 8,4 0,2 38 21 56 30 NW 1018,5 0 0,0
19.11.2017 02:00:00 8,7 1,4 38 21 55 30 WNW 1018,2 0 0,0
19.11.2017 01:00:00 9,0 2,5 43 23 55 30 NW 1018,1 0 0,0
19.11.2017 00:00:00 9,2 2,7 40 21 54 29 NW 1018,0 0 0,0
18.11.2017 23:00:00 9,4 4,1 39 21 51 28 NW 1018,1 0 0,0
18.11.2017 22:00:00 9,8 5,7 23 12 41 22 WNW 1018,0 0 0,0
18.11.2017 21:00:00 9,8 5,8 25 13 37 20 W 1018,4 0 0,0
18.11.2017 20:00:00 9,7 5,9 23 12 35 19 W 1018,6 0 0,0
18.11.2017 19:00:00 9,8 6,5 25 14 34 18 W 1018,7 0 0,0
18.11.2017 18:00:00 9,6 6,4 22 12 42 23 W 1019,1 0 0,0
18.11.2017 17:00:00 9,7 6,1 26 14 44 24 W 1019,3 0 0,0
18.11.2017 16:00:00 9,8 5,4 27 15 45 24 W 1019,8 0 0,0
18.11.2017 15:00:00 10,2 5,7 27 15 52 28 W 1020,2 24 0,0

tt = Température de l'air
td = dewpoint
ff = Vitesse du vent
fx = gusts
dd = Direction du vent
ppp = reduced air pressure
sd = Ensoleillement
rr = Quantités de précipitations

stations d'obs. à proximité